U S A F Academy, Colorado
Current Conditions -  °F | °C
As of 4:56 AM on Saturday 20 Dec 2014 (Local Time) from KSHM Reporting Station
Few Clouds Few Clouds  
Wind Chill: 29°   Ceiling: Unl
Heat Index: 29°   Visibility: 10mi
Dew Point: 15°   Wind: 2mph
Humidity: 57%   Direction: 140°SE
Pressure: 30.03"   Gusts: NA
Location:  38.8247°N, 104.562°W
Report Text: KSHM 201156Z AUTO 14002KT 10SM FEW210 M02/M09 A3003 RMK AO2 SLP205 T10181093 11010 21053 58001
Loading
Personal Weather Stations






























Interactive Weather Map New forecast layout! Learn more

10-Day Weather Forecast

Advertisements
Track Severe Weather on mobile